createdAt,value
2023-03-29T00:01:11.996Z,8.22
2023-03-29T00:03:59.266Z,8.43
2023-03-29T00:06:27.504Z,8.59
2023-03-29T00:08:53.897Z,8.73
2023-03-29T00:11:20.311Z,8.54
2023-03-29T00:13:46.692Z,8.73
2023-03-29T00:16:13.064Z,8.85
2023-03-29T00:18:39.476Z,8.96
2023-03-29T00:21:05.861Z,8.93
2023-03-29T00:23:32.279Z,8.93
2023-03-29T00:25:58.670Z,8.96
2023-03-29T00:28:25.089Z,8.94
2023-03-29T00:30:51.487Z,8.87
2023-03-29T00:33:17.868Z,8.76
2023-03-29T00:35:44.301Z,8.70
2023-03-29T00:38:10.715Z,8.49
2023-03-29T00:40:37.118Z,8.44
2023-03-29T00:43:03.542Z,8.53
2023-03-29T00:45:29.959Z,8.29
2023-03-29T00:47:56.461Z,8.71
2023-03-29T00:50:22.895Z,8.73
2023-03-29T00:52:49.293Z,8.81
2023-03-29T00:55:15.703Z,8.91
2023-03-29T00:57:42.123Z,9.01
2023-03-29T01:00:08.539Z,9.09
2023-03-29T01:02:35.180Z,9.15
2023-03-29T01:05:01.632Z,8.43
2023-03-29T01:07:28.010Z,8.49
2023-03-29T01:09:54.397Z,8.23
2023-03-29T01:12:20.796Z,8.18
2023-03-29T01:14:47.203Z,8.22
2023-03-29T01:17:13.606Z,8.38
2023-03-29T01:19:39.999Z,7.98
2023-03-29T01:22:06.364Z,8.24
2023-03-29T01:24:32.759Z,8.21
2023-03-29T01:26:59.144Z,8.39
2023-03-29T01:29:25.529Z,8.68
2023-03-29T01:31:51.990Z,8.92
2023-03-29T01:34:18.392Z,9.12
2023-03-29T01:36:44.833Z,9.24
2023-03-29T01:39:11.219Z,9.11
2023-03-29T01:41:37.614Z,9.24
2023-03-29T01:44:04.024Z,9.24
2023-03-29T01:46:30.448Z,9.32
2023-03-29T01:48:56.939Z,9.28
2023-03-29T01:51:23.347Z,9.29
2023-03-29T01:53:49.746Z,9.38
2023-03-29T01:56:16.146Z,9.43
2023-03-29T01:58:42.520Z,9.44
2023-03-29T02:01:09.114Z,9.47
2023-03-29T02:03:35.633Z,9.56
2023-03-29T02:06:02.104Z,9.42
2023-03-29T02:08:28.521Z,9.40
2023-03-29T02:10:54.957Z,9.16
2023-03-29T02:13:21.374Z,9.02
2023-03-29T02:15:47.829Z,9.11
2023-03-29T02:18:14.221Z,9.10
2023-03-29T02:20:40.659Z,9.13
2023-03-29T02:23:07.088Z,9.15
2023-03-29T02:25:33.491Z,9.09
2023-03-29T02:27:59.888Z,9.21
2023-03-29T02:30:26.281Z,9.30
2023-03-29T02:32:52.735Z,9.31
2023-03-29T02:35:19.131Z,9.54
2023-03-29T02:37:45.509Z,9.76
2023-03-29T02:40:11.947Z,9.75
2023-03-29T02:42:38.321Z,9.71
2023-03-29T02:45:05.961Z,9.86
2023-03-29T02:47:32.429Z,10.00
2023-03-29T02:49:58.845Z,10.04
2023-03-29T02:52:25.221Z,10.03
2023-03-29T02:54:51.595Z,10.09
2023-03-29T02:57:18.034Z,10.27
2023-03-29T02:59:44.512Z,10.24
2023-03-29T03:02:10.942Z,10.24
2023-03-29T03:04:37.352Z,10.17
2023-03-29T03:07:03.743Z,10.18
2023-03-29T03:09:30.110Z,9.95
2023-03-29T03:11:56.486Z,9.98
2023-03-29T03:14:22.952Z,10.25
2023-03-29T03:16:49.571Z,10.42
2023-03-29T03:19:16.035Z,10.59
2023-03-29T03:21:42.447Z,10.60
2023-03-29T03:24:08.822Z,10.72
2023-03-29T03:26:35.221Z,10.74
2023-03-29T03:29:01.606Z,10.76
2023-03-29T03:31:28.032Z,10.47
2023-03-29T03:33:54.474Z,10.58
2023-03-29T03:36:20.863Z,10.65
2023-03-29T03:38:47.230Z,10.67
2023-03-29T03:41:13.674Z,10.60
2023-03-29T03:43:40.069Z,10.49
2023-03-29T03:46:06.493Z,10.54
2023-03-29T03:48:32.981Z,10.53
2023-03-29T03:50:59.595Z,10.46
2023-03-29T03:53:26.064Z,10.37
2023-03-29T03:55:52.451Z,10.14
2023-03-29T03:58:18.868Z,9.80
2023-03-29T04:00:45.282Z,9.69
2023-03-29T04:03:11.783Z,9.73
2023-03-29T04:05:38.305Z,9.73
2023-03-29T04:08:04.683Z,9.92
2023-03-29T04:10:31.087Z,9.64
2023-03-29T04:12:57.503Z,9.42
2023-03-29T04:15:24.112Z,9.36
2023-03-29T04:17:50.673Z,9.59
2023-03-29T04:20:17.101Z,9.74
2023-03-29T04:22:43.534Z,9.79
2023-03-29T04:25:09.920Z,9.93
2023-03-29T04:27:36.296Z,10.03
2023-03-29T04:30:02.696Z,9.81
2023-03-29T04:32:29.217Z,9.84
2023-03-29T04:34:55.656Z,9.76
2023-03-29T04:37:22.062Z,9.97
2023-03-29T04:39:48.464Z,10.19
2023-03-29T04:42:14.862Z,10.26
2023-03-29T04:44:41.316Z,10.14
2023-03-29T04:47:07.765Z,10.13
2023-03-29T04:49:34.172Z,10.13
2023-03-29T04:52:00.554Z,10.04
2023-03-29T04:54:26.962Z,10.02
2023-03-29T04:56:53.395Z,9.95
2023-03-29T04:59:19.801Z,9.99
2023-03-29T05:01:46.231Z,9.93
2023-03-29T05:04:12.980Z,9.99
2023-03-29T05:06:39.459Z,10.02
2023-03-29T05:09:05.898Z,10.05
2023-03-29T05:11:32.295Z,9.96
2023-03-29T05:13:58.720Z,9.84
2023-03-29T05:16:25.199Z,9.85
2023-03-29T05:18:51.647Z,9.81
2023-03-29T05:21:18.032Z,9.88
2023-03-29T05:23:44.526Z,9.83
2023-03-29T05:26:10.916Z,9.86
2023-03-29T05:28:37.300Z,9.84
2023-03-29T05:31:03.866Z,9.74
2023-03-29T05:33:30.365Z,9.80
2023-03-29T05:35:56.756Z,9.83
2023-03-29T05:38:23.155Z,9.90
2023-03-29T05:40:49.592Z,9.90
2023-03-29T05:43:15.974Z,9.89
2023-03-29T05:45:42.431Z,9.85
2023-03-29T05:48:08.888Z,9.88
2023-03-29T05:50:35.322Z,9.75
2023-03-29T05:53:01.725Z,9.78
2023-03-29T05:55:28.150Z,9.90
2023-03-29T05:57:54.572Z,10.01
2023-03-29T06:00:20.966Z,10.02
2023-03-29T06:02:47.486Z,10.10
2023-03-29T06:05:13.940Z,10.08
2023-03-29T06:07:40.329Z,10.18
2023-03-29T06:10:06.766Z,10.09
2023-03-29T06:12:33.199Z,9.97
2023-03-29T06:14:59.640Z,10.14
2023-03-29T06:17:26.074Z,10.19
2023-03-29T06:19:52.613Z,10.34
2023-03-29T06:22:19.027Z,10.45
2023-03-29T06:24:45.409Z,10.50
2023-03-29T06:27:11.786Z,10.46
2023-03-29T06:29:38.273Z,10.52
2023-03-29T06:32:04.698Z,10.57
2023-03-29T06:34:31.080Z,10.49
2023-03-29T06:36:57.496Z,10.60
2023-03-29T06:39:23.893Z,10.62
2023-03-29T06:41:50.268Z,10.66
2023-03-29T06:44:16.646Z,10.74
2023-03-29T06:46:43.217Z,10.74
2023-03-29T06:49:09.653Z,10.68
2023-03-29T06:51:36.063Z,10.68
2023-03-29T06:54:02.467Z,10.71
2023-03-29T06:56:28.860Z,10.75
2023-03-29T06:58:55.263Z,10.86
2023-03-29T07:01:21.797Z,11.04
2023-03-29T07:03:48.388Z,11.18
2023-03-29T07:06:14.825Z,11.34
2023-03-29T07:08:41.393Z,11.48
2023-03-29T07:11:07.768Z,11.57
2023-03-29T07:13:34.138Z,11.60
2023-03-29T07:16:00.546Z,11.75
2023-03-29T07:18:26.977Z,11.67
2023-03-29T07:20:53.363Z,11.71
2023-03-29T07:23:19.748Z,11.46
2023-03-29T07:25:46.137Z,11.64
2023-03-29T07:28:12.562Z,11.66
2023-03-29T07:30:38.989Z,11.70
2023-03-29T07:33:05.511Z,11.66
2023-03-29T07:35:32.015Z,11.75
2023-03-29T07:37:58.462Z,11.80
2023-03-29T07:40:24.892Z,11.63
2023-03-29T07:42:51.315Z,11.78
2023-03-29T07:45:17.723Z,11.95
2023-03-29T07:47:44.147Z,11.98
2023-03-29T07:50:10.582Z,12.02
2023-03-29T07:52:37.005Z,12.11
2023-03-29T07:55:03.413Z,12.16
2023-03-29T07:57:29.814Z,12.24
2023-03-29T07:59:56.231Z,12.27
2023-03-29T08:02:22.635Z,12.03
2023-03-29T08:04:49.047Z,12.13
2023-03-29T08:07:17.050Z,12.14
2023-03-29T08:09:45.247Z,12.21
2023-03-29T08:12:11.649Z,12.19
2023-03-29T08:14:38.085Z,12.27
2023-03-29T08:17:04.594Z,12.41
2023-03-29T08:19:31.022Z,12.43
2023-03-29T08:21:57.410Z,12.59
2023-03-29T08:24:23.804Z,12.70
2023-03-29T08:26:50.173Z,12.79
2023-03-29T08:29:16.573Z,12.79
2023-03-29T08:31:43.000Z,12.83
2023-03-29T08:34:09.428Z,12.98
2023-03-29T08:36:35.828Z,13.02
2023-03-29T08:39:02.211Z,13.04
2023-03-29T08:41:28.611Z,13.04
2023-03-29T08:43:55.012Z,13.04
2023-03-29T08:46:21.486Z,13.16
2023-03-29T08:48:47.888Z,13.17
2023-03-29T08:51:14.282Z,13.42
2023-03-29T08:53:40.677Z,13.72
2023-03-29T08:56:07.061Z,13.89
2023-03-29T08:58:33.443Z,14.13
2023-03-29T09:01:00.118Z,14.25
2023-03-29T09:03:26.884Z,14.37
2023-03-29T09:05:53.336Z,14.43
2023-03-29T09:08:19.789Z,14.19
2023-03-29T09:10:46.287Z,14.17
2023-03-29T09:13:12.776Z,13.72
2023-03-29T09:15:39.782Z,14.00
2023-03-29T09:18:06.238Z,14.34
2023-03-29T09:20:32.722Z,14.89
2023-03-29T09:22:59.115Z,15.36
2023-03-29T09:25:25.519Z,15.50
2023-03-29T09:27:51.913Z,15.81
2023-03-29T09:30:18.358Z,15.85
2023-03-29T09:32:44.876Z,15.90
2023-03-29T09:35:11.272Z,16.13
2023-03-29T09:37:37.706Z,16.23
2023-03-29T09:40:05.217Z,16.30
2023-03-29T09:42:31.782Z,16.27
2023-03-29T09:44:58.195Z,16.31
2023-03-29T09:47:24.646Z,16.47
2023-03-29T09:49:51.039Z,16.56
2023-03-29T09:52:17.428Z,16.69
2023-03-29T09:54:43.848Z,16.80
2023-03-29T09:57:10.306Z,16.67
2023-03-29T09:59:36.713Z,16.68
2023-03-29T10:02:03.134Z,16.66
2023-03-29T10:04:29.600Z,16.69
2023-03-29T10:06:56.079Z,16.78
2023-03-29T10:09:22.468Z,16.80
2023-03-29T10:11:48.879Z,16.82
2023-03-29T10:14:15.289Z,16.93
2023-03-29T10:16:41.842Z,16.85
2023-03-29T10:19:08.324Z,16.76
2023-03-29T10:21:34.752Z,16.77
2023-03-29T10:24:01.126Z,16.95
2023-03-29T10:26:27.529Z,17.07
2023-03-29T10:28:53.924Z,16.98
2023-03-29T10:31:20.357Z,17.12
2023-03-29T10:33:46.771Z,17.34
2023-03-29T10:36:13.231Z,17.56
2023-03-29T10:38:39.662Z,17.72
2023-03-29T10:41:06.053Z,17.68
2023-03-29T10:43:32.503Z,17.67
2023-03-29T10:45:59.036Z,17.64
2023-03-29T10:48:25.428Z,17.38
2023-03-29T10:50:51.827Z,17.57
2023-03-29T10:53:18.257Z,17.51
2023-03-29T10:55:44.639Z,17.47
2023-03-29T10:58:11.054Z,17.34
2023-03-29T11:00:37.479Z,17.21
2023-03-29T11:03:03.954Z,17.33
2023-03-29T11:05:30.446Z,17.31
2023-03-29T11:07:56.834Z,17.47
2023-03-29T11:10:23.237Z,17.43
2023-03-29T11:12:49.658Z,17.45
2023-03-29T11:15:16.048Z,17.59
2023-03-29T11:17:42.487Z,17.74
2023-03-29T11:20:08.871Z,17.83
2023-03-29T11:22:35.276Z,18.11
2023-03-29T11:25:01.665Z,18.38
2023-03-29T11:27:28.079Z,18.53
2023-03-29T11:29:54.548Z,18.63
2023-03-29T11:32:20.999Z,18.43
2023-03-29T11:34:47.421Z,18.21
2023-03-29T11:37:13.814Z,17.97
2023-03-29T11:39:40.196Z,17.87
2023-03-29T11:42:06.618Z,17.80
2023-03-29T11:44:33.101Z,18.07
2023-03-29T11:46:59.524Z,18.34
2023-03-29T11:49:25.936Z,18.49
2023-03-29T11:51:52.343Z,18.62
2023-03-29T11:54:18.736Z,18.23
2023-03-29T11:56:45.185Z,18.34
2023-03-29T11:59:11.646Z,18.49
2023-03-29T12:01:38.120Z,18.46
2023-03-29T12:04:04.611Z,18.51
2023-03-29T12:06:31.116Z,18.52
2023-03-29T12:08:57.514Z,18.61
2023-03-29T12:11:23.918Z,18.61
2023-03-29T12:13:50.321Z,18.48
2023-03-29T12:16:16.767Z,18.01
2023-03-29T12:18:43.211Z,17.79
2023-03-29T12:21:09.642Z,17.78
2023-03-29T12:23:36.049Z,17.96
2023-03-29T12:26:02.461Z,18.01
2023-03-29T12:28:28.881Z,18.20
2023-03-29T12:30:55.281Z,18.53
2023-03-29T12:33:21.668Z,18.65
2023-03-29T12:35:48.119Z,18.73
2023-03-29T12:38:14.539Z,18.74
2023-03-29T12:40:40.967Z,18.72
2023-03-29T12:43:07.365Z,18.73
2023-03-29T12:45:33.749Z,18.93
2023-03-29T12:48:00.205Z,19.08
2023-03-29T12:50:26.661Z,19.02
2023-03-29T12:52:53.052Z,19.05
2023-03-29T12:55:19.417Z,18.99
2023-03-29T12:57:45.839Z,18.99
2023-03-29T13:00:12.228Z,19.08
2023-03-29T13:02:38.908Z,19.15
2023-03-29T13:05:05.600Z,19.31
2023-03-29T13:07:32.087Z,19.38
2023-03-29T13:09:58.520Z,19.40
2023-03-29T13:12:24.921Z,19.27
2023-03-29T13:14:51.323Z,19.35
2023-03-29T13:17:19.020Z,19.32
2023-03-29T13:19:45.715Z,19.29
2023-03-29T13:22:12.138Z,19.54
2023-03-29T13:24:38.538Z,19.66
2023-03-29T13:27:04.914Z,19.74
2023-03-29T13:29:31.324Z,19.65
2023-03-29T13:31:57.694Z,19.79
2023-03-29T13:34:24.078Z,19.90
2023-03-29T13:36:50.499Z,19.89
2023-03-29T13:39:16.893Z,20.04
2023-03-29T13:41:43.295Z,20.09
2023-03-29T13:44:09.695Z,20.01
2023-03-29T13:46:36.100Z,19.93
2023-03-29T13:49:02.534Z,19.67
2023-03-29T13:51:28.960Z,19.70
2023-03-29T13:53:55.356Z,19.79
2023-03-29T13:56:21.742Z,19.83
2023-03-29T13:58:48.166Z,19.91
2023-03-29T14:01:14.659Z,19.73
2023-03-29T14:03:41.221Z,19.66
2023-03-29T14:06:07.627Z,19.31
2023-03-29T14:08:35.813Z,19.13
2023-03-29T14:11:02.407Z,19.15
2023-03-29T14:13:28.825Z,19.03
2023-03-29T14:15:55.264Z,19.13
2023-03-29T14:18:21.655Z,19.25
2023-03-29T14:20:48.060Z,19.40
2023-03-29T14:23:16.121Z,19.51
2023-03-29T14:25:42.665Z,19.67
2023-03-29T14:28:09.045Z,19.50
2023-03-29T14:30:35.446Z,19.61
2023-03-29T14:33:01.878Z,19.60
2023-03-29T14:35:28.322Z,19.44
2023-03-29T14:37:54.752Z,19.33
2023-03-29T14:40:21.228Z,19.29
2023-03-29T14:42:47.649Z,19.03
2023-03-29T14:45:14.081Z,18.97
2023-03-29T14:47:40.512Z,19.02
2023-03-29T14:50:06.954Z,18.95
2023-03-29T14:52:33.362Z,19.09
2023-03-29T14:54:59.794Z,19.14
2023-03-29T14:57:26.319Z,19.07
2023-03-29T14:59:52.877Z,19.08
2023-03-29T15:02:19.322Z,19.05
2023-03-29T15:04:45.745Z,18.80
2023-03-29T15:07:12.143Z,18.63
2023-03-29T15:09:38.541Z,18.62
2023-03-29T15:12:04.922Z,18.65
2023-03-29T15:14:31.329Z,18.60
2023-03-29T15:16:57.705Z,18.66
2023-03-29T15:19:24.094Z,18.63
2023-03-29T15:21:50.504Z,18.71
2023-03-29T15:24:16.912Z,18.51
2023-03-29T15:26:43.325Z,18.50
2023-03-29T15:29:09.719Z,18.40
2023-03-29T15:31:36.181Z,18.44
2023-03-29T15:34:02.594Z,18.42
2023-03-29T15:36:28.973Z,18.40
2023-03-29T15:38:55.366Z,18.45
2023-03-29T15:41:21.752Z,18.57
2023-03-29T15:43:48.155Z,18.55
2023-03-29T15:46:14.632Z,18.51
2023-03-29T15:48:41.055Z,18.60
2023-03-29T15:51:07.520Z,18.65
2023-03-29T15:53:33.978Z,18.65
2023-03-29T15:56:00.527Z,18.56
2023-03-29T15:58:27.048Z,18.58
2023-03-29T16:00:53.505Z,18.65
2023-03-29T16:03:19.975Z,18.42
2023-03-29T16:05:46.401Z,18.36
2023-03-29T16:08:12.787Z,18.35
2023-03-29T16:10:39.178Z,18.27
2023-03-29T16:13:05.576Z,18.14
2023-03-29T16:15:31.967Z,18.05
2023-03-29T16:17:58.446Z,17.98
2023-03-29T16:20:24.881Z,17.92
2023-03-29T16:22:51.330Z,17.91
2023-03-29T16:25:17.802Z,17.94
2023-03-29T16:27:44.213Z,17.99
2023-03-29T16:30:10.620Z,17.87
2023-03-29T16:32:37.062Z,17.68
2023-03-29T16:35:03.472Z,17.54
2023-03-29T16:37:29.865Z,17.50
2023-03-29T16:39:56.444Z,17.45
2023-03-29T16:42:22.896Z,17.42
2023-03-29T16:44:49.303Z,17.44
2023-03-29T16:47:15.854Z,17.49
2023-03-29T16:49:43.729Z,17.48
2023-03-29T16:52:12.123Z,17.58
2023-03-29T16:54:38.584Z,17.41
2023-03-29T16:57:05.017Z,17.47
2023-03-29T16:59:31.426Z,17.53
2023-03-29T17:01:57.858Z,17.43
2023-03-29T17:04:24.293Z,17.21
2023-03-29T17:06:50.757Z,17.31
2023-03-29T17:09:17.247Z,17.23
2023-03-29T17:11:43.752Z,17.25
2023-03-29T17:14:10.433Z,17.32
2023-03-29T17:16:36.916Z,17.41
2023-03-29T17:19:03.362Z,17.44
2023-03-29T17:21:29.800Z,17.45
2023-03-29T17:23:56.192Z,17.49
2023-03-29T17:26:22.672Z,17.46
2023-03-29T17:28:49.095Z,17.41
2023-03-29T17:31:15.535Z,17.33
2023-03-29T17:33:41.973Z,17.34
2023-03-29T17:36:08.812Z,17.31
2023-03-29T17:38:35.345Z,17.02
2023-03-29T17:41:01.747Z,17.09
2023-03-29T17:43:28.155Z,17.01
2023-03-29T17:45:54.536Z,16.93
2023-03-29T17:48:21.064Z,16.88
2023-03-29T17:50:47.563Z,16.91
2023-03-29T17:53:13.971Z,16.95
2023-03-29T17:55:40.383Z,16.76
2023-03-29T17:58:06.790Z,16.63
2023-03-29T18:00:33.183Z,16.62
2023-03-29T18:02:59.617Z,16.60
2023-03-29T18:05:26.051Z,16.64
2023-03-29T18:07:52.435Z,16.66
2023-03-29T18:10:18.840Z,16.70
2023-03-29T18:12:45.205Z,16.68
2023-03-29T18:15:11.603Z,16.73
2023-03-29T18:17:38.006Z,16.69
2023-03-29T18:20:04.417Z,16.71
2023-03-29T18:22:30.802Z,16.81
2023-03-29T18:24:57.209Z,16.73
2023-03-29T18:27:23.681Z,16.75
2023-03-29T18:29:50.074Z,16.64
2023-03-29T18:32:16.521Z,16.39
2023-03-29T18:34:43.040Z,16.45
2023-03-29T18:37:09.429Z,16.57
2023-03-29T18:39:35.836Z,16.57
2023-03-29T18:42:02.245Z,16.62
2023-03-29T18:44:28.666Z,16.63
2023-03-29T18:46:55.064Z,16.70
2023-03-29T18:49:21.454Z,16.70
2023-03-29T18:51:47.868Z,16.80
2023-03-29T18:54:14.286Z,16.84
2023-03-29T18:56:40.737Z,16.86
2023-03-29T18:59:07.139Z,16.92
2023-03-29T19:01:33.625Z,16.98
2023-03-29T19:04:00.109Z,17.07
2023-03-29T19:06:26.612Z,17.08
2023-03-29T19:08:52.976Z,17.00
2023-03-29T19:11:19.408Z,16.76
2023-03-29T19:13:45.926Z,16.44
2023-03-29T19:16:12.421Z,16.51
2023-03-29T19:18:38.824Z,16.58
2023-03-29T19:21:05.290Z,16.61
2023-03-29T19:23:31.692Z,16.15
2023-03-29T19:25:58.101Z,15.91
2023-03-29T19:28:24.536Z,15.99
2023-03-29T19:30:50.928Z,15.54
2023-03-29T19:33:17.407Z,15.33
2023-03-29T19:35:43.823Z,15.60
2023-03-29T19:38:10.268Z,15.73
2023-03-29T19:40:36.675Z,15.95
2023-03-29T19:43:03.078Z,16.12
2023-03-29T19:45:29.467Z,16.25
2023-03-29T19:47:55.896Z,16.20
2023-03-29T19:50:22.336Z,15.95
2023-03-29T19:52:48.767Z,15.18
2023-03-29T19:55:15.175Z,15.39
2023-03-29T19:57:41.590Z,15.32
2023-03-29T20:00:08.004Z,15.22
2023-03-29T20:02:34.405Z,15.45
2023-03-29T20:05:00.809Z,15.68
2023-03-29T20:07:27.195Z,15.84
2023-03-29T20:09:53.655Z,16.01
2023-03-29T20:12:20.054Z,16.14
2023-03-29T20:14:46.469Z,16.15
2023-03-29T20:17:12.880Z,16.09
2023-03-29T20:19:39.291Z,15.85
2023-03-29T20:22:05.732Z,15.08
2023-03-29T20:24:32.128Z,15.05
2023-03-29T20:26:58.498Z,14.79
2023-03-29T20:29:24.932Z,14.87
2023-03-29T20:31:51.379Z,15.08
2023-03-29T20:34:17.801Z,15.18
2023-03-29T20:36:44.212Z,15.35
2023-03-29T20:39:10.583Z,15.50
2023-03-29T20:41:37.009Z,15.53
2023-03-29T20:44:03.405Z,15.69
2023-03-29T20:46:29.851Z,15.74
2023-03-29T20:48:56.294Z,15.65
2023-03-29T20:51:22.699Z,15.75
2023-03-29T20:53:49.073Z,15.77
2023-03-29T20:56:15.442Z,15.61
2023-03-29T20:58:41.906Z,15.61
2023-03-29T21:01:08.495Z,15.56
2023-03-29T21:03:34.966Z,15.54
2023-03-29T21:06:01.477Z,15.65
2023-03-29T21:08:27.892Z,15.75
2023-03-29T21:10:54.359Z,15.77
2023-03-29T21:13:20.776Z,15.87
2023-03-29T21:15:47.283Z,15.94
2023-03-29T21:18:13.756Z,15.85
2023-03-29T21:20:40.145Z,15.69
2023-03-29T21:23:06.565Z,15.21
2023-03-29T21:25:32.989Z,15.15
2023-03-29T21:27:59.664Z,15.43
2023-03-29T21:30:26.079Z,15.19
2023-03-29T21:32:52.560Z,15.16
2023-03-29T21:35:19.054Z,15.22
2023-03-29T21:37:45.454Z,15.32
2023-03-29T21:40:11.831Z,15.52
2023-03-29T21:42:38.223Z,15.70
2023-03-29T21:45:04.629Z,15.82
2023-03-29T21:47:31.111Z,15.94
2023-03-29T21:49:57.544Z,15.79
2023-03-29T21:52:23.985Z,15.26
2023-03-29T21:54:50.382Z,15.07
2023-03-29T21:57:16.826Z,15.05
2023-03-29T21:59:43.274Z,15.09
2023-03-29T22:02:09.716Z,15.28
2023-03-29T22:04:37.411Z,15.23
2023-03-29T22:07:04.215Z,15.40
2023-03-29T22:09:30.633Z,15.56
2023-03-29T22:11:57.033Z,15.69
2023-03-29T22:14:23.433Z,15.78
2023-03-29T22:16:49.890Z,15.71
2023-03-29T22:19:16.372Z,15.09
2023-03-29T22:21:42.793Z,15.10
2023-03-29T22:24:09.202Z,14.94
2023-03-29T22:26:35.638Z,14.90
2023-03-29T22:29:02.089Z,15.01
2023-03-29T22:31:28.545Z,15.20
2023-03-29T22:33:55.018Z,15.27
2023-03-29T22:36:21.435Z,15.29
2023-03-29T22:38:47.841Z,15.32
2023-03-29T22:41:14.233Z,15.42
2023-03-29T22:43:40.625Z,15.52
2023-03-29T22:46:07.054Z,15.57
2023-03-29T22:48:33.491Z,15.46
2023-03-29T22:50:59.915Z,15.16
2023-03-29T22:53:26.301Z,14.77
2023-03-29T22:55:52.744Z,14.27
2023-03-29T22:58:19.128Z,14.39
2023-03-29T23:00:45.504Z,14.34
2023-03-29T23:03:11.890Z,14.21
2023-03-29T23:05:38.288Z,14.36
2023-03-29T23:08:04.729Z,14.53
2023-03-29T23:10:31.144Z,14.73
2023-03-29T23:12:57.532Z,14.86
2023-03-29T23:15:24.047Z,14.52
2023-03-29T23:17:50.507Z,14.21
2023-03-29T23:20:16.927Z,14.18
2023-03-29T23:22:43.346Z,14.04
2023-03-29T23:25:09.729Z,14.27
2023-03-29T23:27:36.146Z,14.37
2023-03-29T23:30:02.558Z,14.44
2023-03-29T23:32:28.980Z,14.60
2023-03-29T23:34:55.384Z,14.71
2023-03-29T23:37:21.777Z,14.89
2023-03-29T23:39:48.151Z,14.95
2023-03-29T23:42:14.546Z,14.99
2023-03-29T23:44:40.961Z,14.82
2023-03-29T23:47:07.442Z,14.78
2023-03-29T23:49:33.945Z,14.83
2023-03-29T23:52:00.380Z,14.32
2023-03-29T23:54:26.786Z,14.09
2023-03-29T23:56:53.258Z,13.98
2023-03-29T23:59:19.645Z,13.97
